createdAt,value
2023-04-08T00:00:11.250Z,27.21
2023-04-08T00:01:11.316Z,27.19
2023-04-08T00:02:11.324Z,27.20
2023-04-08T00:03:11.453Z,27.19
2023-04-08T00:04:11.398Z,27.20
2023-04-08T00:05:11.344Z,27.21
2023-04-08T00:06:11.406Z,27.20
2023-04-08T00:07:11.432Z,27.21
2023-04-08T00:08:11.756Z,27.22
2023-04-08T00:09:11.457Z,27.22
2023-04-08T00:10:11.483Z,27.23
2023-04-08T00:11:11.498Z,27.22
2023-04-08T00:12:11.565Z,27.23
2023-04-08T00:13:11.588Z,27.24
2023-04-08T00:14:11.571Z,27.23
2023-04-08T00:15:11.623Z,27.21
2023-04-08T00:16:11.608Z,27.23
2023-04-08T00:17:11.828Z,27.22
2023-04-08T00:18:11.790Z,27.26
2023-04-08T00:19:11.747Z,27.25
2023-04-08T00:20:11.698Z,27.23
2023-04-08T00:21:11.739Z,27.25
2023-04-08T00:22:11.760Z,27.26
2023-04-08T00:23:11.772Z,27.27
2023-04-08T00:24:11.786Z,27.27
2023-04-08T00:25:11.861Z,27.23
2023-04-08T00:26:11.837Z,27.24
2023-04-08T00:27:11.896Z,27.24
2023-04-08T00:28:11.876Z,27.27
2023-04-08T00:29:11.893Z,27.26
2023-04-08T00:30:11.918Z,27.25
2023-04-08T00:31:12.026Z,27.28
2023-04-08T00:32:11.922Z,27.28
2023-04-08T00:33:12.120Z,27.29
2023-04-08T00:34:11.961Z,27.28
2023-04-08T00:35:11.992Z,27.29
2023-04-08T00:36:11.984Z,27.29
2023-04-08T00:37:12.038Z,27.30
2023-04-08T00:38:12.017Z,27.29
2023-04-08T00:39:12.086Z,27.29
2023-04-08T00:40:12.075Z,27.30
2023-04-08T00:41:12.053Z,27.31
2023-04-08T00:42:12.092Z,27.30
2023-04-08T00:43:12.159Z,27.31
2023-04-08T00:44:12.156Z,27.31
2023-04-08T00:45:12.230Z,27.31
2023-04-08T00:46:12.206Z,27.34
2023-04-08T00:47:12.237Z,27.31
2023-04-08T00:48:12.323Z,27.31
2023-04-08T00:49:12.205Z,27.33
2023-04-08T00:50:12.225Z,27.33
2023-04-08T00:51:12.297Z,27.36
2023-04-08T00:52:12.329Z,27.35
2023-04-08T00:53:12.337Z,27.32
2023-04-08T00:54:12.474Z,27.33
2023-04-08T00:55:12.375Z,27.34
2023-04-08T00:56:13.359Z,27.33
2023-04-08T00:57:12.482Z,27.33
2023-04-08T00:58:12.436Z,27.34
2023-04-08T00:59:12.482Z,27.35
2023-04-08T01:00:13.235Z,27.35
2023-04-08T01:01:12.578Z,27.37
2023-04-08T01:02:12.618Z,27.36
2023-04-08T01:03:12.649Z,27.38
2023-04-08T01:04:15.395Z,27.38
2023-04-08T01:05:12.565Z,27.39
2023-04-08T01:06:12.528Z,27.38
2023-04-08T01:07:12.545Z,27.36
2023-04-08T01:08:12.563Z,27.38
2023-04-08T01:09:13.347Z,27.38
2023-04-08T01:10:12.497Z,27.39
2023-04-08T01:11:12.504Z,27.41
2023-04-08T01:12:13.283Z,27.39
2023-04-08T01:13:12.526Z,27.41
2023-04-08T01:14:12.467Z,27.41
2023-04-08T01:15:12.548Z,27.40
2023-04-08T01:16:12.476Z,27.42
2023-04-08T01:17:12.523Z,27.42
2023-04-08T01:18:12.518Z,27.41
2023-04-08T01:19:12.450Z,27.42
2023-04-08T01:20:12.510Z,27.41
2023-04-08T01:21:12.399Z,27.42
2023-04-08T01:22:12.385Z,27.42
2023-04-08T01:23:12.389Z,27.40
2023-04-08T01:24:12.398Z,27.43
2023-04-08T01:25:12.424Z,27.44
2023-04-08T01:26:12.389Z,27.43
2023-04-08T01:27:12.394Z,27.43
2023-04-08T01:28:12.367Z,27.44
2023-04-08T01:29:12.394Z,27.45
2023-04-08T01:30:12.362Z,27.47
2023-04-08T01:31:12.351Z,27.45
2023-04-08T01:32:12.352Z,27.45
2023-04-08T01:33:12.363Z,27.46
2023-04-08T01:34:12.353Z,27.47
2023-04-08T01:35:12.297Z,27.49
2023-04-08T01:36:12.296Z,27.48
2023-04-08T01:37:12.337Z,27.48
2023-04-08T01:38:12.304Z,27.47
2023-04-08T01:39:12.271Z,27.48
2023-04-08T01:40:12.286Z,27.47
2023-04-08T01:41:12.247Z,27.51
2023-04-08T01:42:12.281Z,27.48
2023-04-08T01:43:12.246Z,27.49
2023-04-08T01:44:12.249Z,27.51
2023-04-08T01:45:12.285Z,27.52
2023-04-08T01:46:12.258Z,27.52
2023-04-08T01:47:12.763Z,27.51
2023-04-08T01:48:12.228Z,27.51
2023-04-08T01:49:12.186Z,27.52
2023-04-08T01:50:12.227Z,27.53
2023-04-08T01:51:12.196Z,27.50
2023-04-08T01:52:12.198Z,27.55
2023-04-08T01:53:12.386Z,27.54
2023-04-08T01:54:12.199Z,27.55
2023-04-08T01:55:12.190Z,27.57
2023-04-08T01:56:12.174Z,27.55
2023-04-08T01:57:12.203Z,27.56
2023-04-08T01:58:12.294Z,27.54
2023-04-08T01:59:12.181Z,27.58
2023-04-08T02:00:12.153Z,27.56
2023-04-08T02:01:12.219Z,27.57
2023-04-08T02:02:12.382Z,27.56
2023-04-08T02:03:12.436Z,27.57
2023-04-08T02:04:12.847Z,27.57
2023-04-08T02:05:12.357Z,27.57
2023-04-08T02:06:12.358Z,27.57
2023-04-08T02:07:13.305Z,27.59
2023-04-08T02:08:12.356Z,27.58
2023-04-08T02:09:12.425Z,27.58
2023-04-08T02:10:12.391Z,27.58
2023-04-08T02:11:12.462Z,27.61
2023-04-08T02:12:12.468Z,27.61
2023-04-08T02:13:12.815Z,27.61
2023-04-08T02:14:12.506Z,27.61
2023-04-08T02:15:12.543Z,27.62
2023-04-08T02:16:12.593Z,27.60
2023-04-08T02:17:12.579Z,27.63
2023-04-08T02:18:12.673Z,27.61
2023-04-08T02:19:13.045Z,27.62
2023-04-08T02:20:12.618Z,27.61
2023-04-08T02:21:12.681Z,27.63
2023-04-08T02:22:12.775Z,27.64
2023-04-08T02:23:12.909Z,27.62
2023-04-08T02:24:12.753Z,27.62
2023-04-08T02:25:12.834Z,27.64
2023-04-08T02:26:12.794Z,27.64
2023-04-08T02:27:12.828Z,27.67
2023-04-08T02:28:12.832Z,27.66
2023-04-08T02:29:12.839Z,27.66
2023-04-08T02:30:12.874Z,27.66
2023-04-08T02:31:12.965Z,27.65
2023-04-08T02:32:12.965Z,27.67
2023-04-08T02:33:12.982Z,27.68
2023-04-08T02:34:12.982Z,27.66
2023-04-08T02:35:13.119Z,27.67
2023-04-08T02:36:13.099Z,27.67
2023-04-08T02:37:13.101Z,27.69
2023-04-08T02:38:13.455Z,27.68
2023-04-08T02:39:13.185Z,27.68
2023-04-08T02:40:13.163Z,27.69
2023-04-08T02:41:13.157Z,27.70
2023-04-08T02:42:13.237Z,27.71
2023-04-08T02:43:13.363Z,27.70
2023-04-08T02:44:13.345Z,27.73
2023-04-08T02:45:13.402Z,27.70
2023-04-08T02:46:13.471Z,27.70
2023-04-08T02:47:13.454Z,27.69
2023-04-08T02:48:13.341Z,27.70
2023-04-08T02:49:13.377Z,27.69
2023-04-08T02:50:13.376Z,27.70
2023-04-08T02:51:13.482Z,27.70
2023-04-08T02:52:13.457Z,27.70
2023-04-08T02:53:13.497Z,27.71
2023-04-08T02:54:13.579Z,27.72
2023-04-08T02:55:13.560Z,27.74
2023-04-08T02:56:13.580Z,27.74
2023-04-08T02:57:13.589Z,27.74
2023-04-08T02:58:13.593Z,27.74
2023-04-08T02:59:13.612Z,27.75
2023-04-08T03:00:13.728Z,27.76
2023-04-08T03:01:14.405Z,27.76
2023-04-08T03:02:13.780Z,27.74
2023-04-08T03:03:13.869Z,27.77
2023-04-08T03:04:13.765Z,27.76
2023-04-08T03:05:13.787Z,27.76
2023-04-08T03:06:13.842Z,27.76
2023-04-08T03:07:13.821Z,27.77
2023-04-08T03:08:13.905Z,27.77
2023-04-08T03:09:13.847Z,27.79
2023-04-08T03:10:13.911Z,27.80
2023-04-08T03:11:13.890Z,27.78
2023-04-08T03:12:13.903Z,27.80
2023-04-08T03:13:14.033Z,27.81
2023-04-08T03:14:14.051Z,27.81
2023-04-08T03:15:14.012Z,27.81
2023-04-08T03:16:14.080Z,27.80
2023-04-08T03:17:14.056Z,27.80
2023-04-08T03:18:14.275Z,27.81
2023-04-08T03:19:14.852Z,27.83
2023-04-08T03:20:14.117Z,27.81
2023-04-08T03:21:14.150Z,27.82
2023-04-08T03:22:14.221Z,27.81
2023-04-08T03:23:14.849Z,27.82
2023-04-08T03:24:14.248Z,27.83
2023-04-08T03:25:14.224Z,27.81
2023-04-08T03:26:14.267Z,27.83
2023-04-08T03:27:14.312Z,27.83
2023-04-08T03:28:14.331Z,27.81
2023-04-08T03:29:14.302Z,27.82
2023-04-08T03:30:14.330Z,27.87
2023-04-08T03:31:14.366Z,27.86
2023-04-08T03:32:15.325Z,27.85
2023-04-08T03:33:14.424Z,27.85
2023-04-08T03:34:14.439Z,27.85
2023-04-08T03:35:14.448Z,27.85
2023-04-08T03:36:14.441Z,27.86
2023-04-08T03:37:14.478Z,27.86
2023-04-08T03:38:14.481Z,27.85
2023-04-08T03:39:14.510Z,27.86
2023-04-08T03:40:14.592Z,27.88
2023-04-08T03:41:14.603Z,27.87
2023-04-08T03:42:14.616Z,27.87
2023-04-08T03:43:14.603Z,27.87
2023-04-08T03:44:14.733Z,27.86
2023-04-08T03:45:14.705Z,27.88
2023-04-08T03:46:14.733Z,27.88
2023-04-08T03:47:14.748Z,27.88
2023-04-08T03:48:14.856Z,27.88
2023-04-08T03:49:14.846Z,27.89
2023-04-08T03:50:14.917Z,27.88
2023-04-08T03:51:14.847Z,27.88
2023-04-08T03:52:14.927Z,27.90
2023-04-08T03:53:14.876Z,27.88
2023-04-08T03:54:14.921Z,27.86
2023-04-08T03:55:14.925Z,27.89
2023-04-08T03:56:14.998Z,27.90
2023-04-08T03:57:14.971Z,27.89
2023-04-08T03:58:15.040Z,27.89
2023-04-08T03:59:15.108Z,27.92
2023-04-08T04:00:15.072Z,27.93
2023-04-08T04:01:15.098Z,27.93
2023-04-08T04:02:15.234Z,27.91
2023-04-08T04:03:15.289Z,27.91
2023-04-08T04:04:15.310Z,27.91
2023-04-08T04:05:15.222Z,27.92
2023-04-08T04:06:15.239Z,27.93
2023-04-08T04:07:15.252Z,27.93
2023-04-08T04:08:15.337Z,27.93
2023-04-08T04:09:15.349Z,27.91
2023-04-08T04:10:16.346Z,27.92
2023-04-08T04:11:15.495Z,27.92
2023-04-08T04:12:15.396Z,27.92
2023-04-08T04:13:15.421Z,27.95
2023-04-08T04:14:16.309Z,27.92
2023-04-08T04:15:15.502Z,27.90
2023-04-08T04:16:15.622Z,27.95
2023-04-08T04:17:15.540Z,27.96
2023-04-08T04:18:15.620Z,27.95
2023-04-08T04:19:15.776Z,27.95
2023-04-08T04:20:16.367Z,27.94
2023-04-08T04:21:15.727Z,27.95
2023-04-08T04:22:15.680Z,27.97
2023-04-08T04:23:15.812Z,27.96
2023-04-08T04:24:15.778Z,27.96
2023-04-08T04:25:15.758Z,27.98
2023-04-08T04:26:15.827Z,27.96
2023-04-08T04:27:15.898Z,27.96
2023-04-08T04:28:15.904Z,27.95
2023-04-08T04:29:16.045Z,27.95
2023-04-08T04:30:15.942Z,27.94
2023-04-08T04:31:15.984Z,27.96
2023-04-08T04:32:15.970Z,27.96
2023-04-08T04:33:16.002Z,27.95
2023-04-08T04:34:16.008Z,27.95
2023-04-08T04:35:18.872Z,27.97
2023-04-08T04:36:16.052Z,27.97
2023-04-08T04:37:16.070Z,27.95
2023-04-08T04:38:16.032Z,27.98
2023-04-08T04:39:16.051Z,27.96
2023-04-08T04:40:16.019Z,27.98
2023-04-08T04:41:16.027Z,27.98
2023-04-08T04:42:16.016Z,27.99
2023-04-08T04:43:16.038Z,27.99
2023-04-08T04:44:15.993Z,27.97
2023-04-08T04:45:16.020Z,27.98
2023-04-08T04:46:16.010Z,27.98
2023-04-08T04:47:16.008Z,27.98
2023-04-08T04:48:15.973Z,27.98
2023-04-08T04:49:15.983Z,27.98
2023-04-08T04:50:15.955Z,28.00
2023-04-08T04:51:15.921Z,27.98
2023-04-08T04:52:15.931Z,27.97
2023-04-08T04:53:15.901Z,28.00
2023-04-08T04:54:15.930Z,28.01
2023-04-08T04:55:15.960Z,28.02
2023-04-08T04:56:15.929Z,28.00
2023-04-08T04:57:15.877Z,27.99
2023-04-08T04:58:15.882Z,27.98
2023-04-08T04:59:15.869Z,28.02
2023-04-08T05:00:16.862Z,28.00
2023-04-08T05:01:15.897Z,27.96
2023-04-08T05:02:15.969Z,27.98
2023-04-08T05:03:16.068Z,28.00
2023-04-08T05:04:15.863Z,27.98
2023-04-08T05:05:15.955Z,27.99
2023-04-08T05:06:15.864Z,28.00
2023-04-08T05:07:15.820Z,28.03
2023-04-08T05:08:15.843Z,28.01
2023-04-08T05:09:15.809Z,28.00
2023-04-08T05:10:15.810Z,28.01
2023-04-08T05:11:15.790Z,28.02
2023-04-08T05:12:15.812Z,28.00
2023-04-08T05:13:16.342Z,28.01
2023-04-08T05:14:15.803Z,28.02
2023-04-08T05:15:15.774Z,27.98
2023-04-08T05:16:15.823Z,28.00
2023-04-08T05:17:15.755Z,28.02
2023-04-08T05:18:15.781Z,28.03
2023-04-08T05:19:15.738Z,28.04
2023-04-08T05:20:17.554Z,27.99
2023-04-08T05:21:15.733Z,28.00
2023-04-08T05:22:15.735Z,28.00
2023-04-08T05:23:15.714Z,28.00
2023-04-08T05:24:15.776Z,28.03
2023-04-08T05:25:15.701Z,28.02
2023-04-08T05:26:16.555Z,28.04
2023-04-08T05:27:15.677Z,28.04
2023-04-08T05:28:16.353Z,28.03
2023-04-08T05:29:15.673Z,28.03
2023-04-08T05:30:15.745Z,28.03
2023-04-08T05:31:15.709Z,28.04
2023-04-08T05:32:16.391Z,28.07
2023-04-08T05:33:15.747Z,28.07
2023-04-08T05:34:15.895Z,28.05
2023-04-08T05:35:15.789Z,28.06
2023-04-08T05:36:15.783Z,28.05
2023-04-08T05:37:15.816Z,28.06
2023-04-08T05:38:15.876Z,28.06
2023-04-08T05:39:19.388Z,28.05
2023-04-08T05:40:15.934Z,28.08
2023-04-08T05:41:15.904Z,28.06
2023-04-08T05:42:15.934Z,28.06
2023-04-08T05:43:15.950Z,28.09
2023-04-08T05:44:16.056Z,28.08
2023-04-08T05:45:15.859Z,28.05
2023-04-08T05:46:15.863Z,28.05
2023-04-08T05:47:15.858Z,28.05
2023-04-08T05:48:15.927Z,28.08
2023-04-08T05:49:15.836Z,28.07
2023-04-08T05:50:15.815Z,28.05
2023-04-08T05:51:15.769Z,28.05
2023-04-08T05:52:15.798Z,28.07
2023-04-08T05:53:16.394Z,28.07
2023-04-08T05:54:15.759Z,28.08
2023-04-08T05:55:15.807Z,28.06
2023-04-08T05:56:18.351Z,28.08
2023-04-08T05:57:16.043Z,28.07
2023-04-08T05:58:16.101Z,28.09
2023-04-08T05:59:16.056Z,28.08
2023-04-08T06:00:16.085Z,28.06
2023-04-08T06:01:16.120Z,28.07
2023-04-08T06:02:16.226Z,28.08
2023-04-08T06:03:18.840Z,28.08
2023-04-08T06:04:16.279Z,28.09
2023-04-08T06:05:16.841Z,28.09
2023-04-08T06:06:16.158Z,28.10
2023-04-08T06:07:16.118Z,28.10
2023-04-08T06:08:16.180Z,28.09
2023-04-08T06:09:16.134Z,28.09
2023-04-08T06:10:16.178Z,28.11
2023-04-08T06:11:16.134Z,28.09
2023-04-08T06:12:16.085Z,28.08
2023-04-08T06:13:16.053Z,28.10
2023-04-08T06:14:16.386Z,28.08
2023-04-08T06:15:16.172Z,28.09
2023-04-08T06:16:17.217Z,28.10
2023-04-08T06:17:16.023Z,28.08
2023-04-08T06:18:16.055Z,28.10
2023-04-08T06:19:16.021Z,28.12
2023-04-08T06:20:16.051Z,28.10
2023-04-08T06:21:15.995Z,28.09
2023-04-08T06:22:16.032Z,28.10
2023-04-08T06:23:16.032Z,28.09
2023-04-08T06:24:15.998Z,28.11
2023-04-08T06:25:16.112Z,28.11
2023-04-08T06:26:16.008Z,28.10
2023-04-08T06:27:16.029Z,28.12
2023-04-08T06:28:16.098Z,28.11
2023-04-08T06:29:15.940Z,28.13
2023-04-08T06:30:15.951Z,28.12
2023-04-08T06:31:15.942Z,28.11
2023-04-08T06:32:15.904Z,28.13
2023-04-08T06:33:15.949Z,28.12
2023-04-08T06:34:15.945Z,28.14
2023-04-08T06:35:19.003Z,28.14
2023-04-08T06:36:15.990Z,28.14
2023-04-08T06:37:16.966Z,28.15
2023-04-08T06:38:15.976Z,28.12
2023-04-08T06:39:15.942Z,28.14
2023-04-08T06:40:16.381Z,28.15
2023-04-08T06:41:15.991Z,28.15
2023-04-08T06:42:16.700Z,28.16
2023-04-08T06:43:15.857Z,28.15
2023-04-08T06:44:15.886Z,28.17
2023-04-08T06:45:15.844Z,28.14
2023-04-08T06:46:15.942Z,28.18
2023-04-08T06:47:15.916Z,28.16
2023-04-08T06:48:15.852Z,28.16
2023-04-08T06:49:15.817Z,28.17
2023-04-08T06:50:15.782Z,28.17
2023-04-08T06:51:15.800Z,28.17
2023-04-08T06:52:15.763Z,28.19
2023-04-08T06:53:18.466Z,28.17
2023-04-08T06:54:16.112Z,28.21
2023-04-08T06:55:15.768Z,28.20
2023-04-08T06:56:15.745Z,28.18
2023-04-08T06:57:16.391Z,28.19
2023-04-08T06:58:15.929Z,28.19
2023-04-08T06:59:15.744Z,28.19
2023-04-08T07:00:15.792Z,28.19
2023-04-08T07:01:15.754Z,28.20
2023-04-08T07:02:15.779Z,28.21
2023-04-08T07:03:15.770Z,28.22
2023-04-08T07:04:15.760Z,28.21
2023-04-08T07:05:15.965Z,28.22
2023-04-08T07:06:15.729Z,28.22
2023-04-08T07:07:15.739Z,28.21
2023-04-08T07:08:15.729Z,28.21
2023-04-08T07:09:15.703Z,28.23
2023-04-08T07:10:15.647Z,28.22
2023-04-08T07:11:15.650Z,28.23
2023-04-08T07:12:15.645Z,28.24
2023-04-08T07:13:15.729Z,28.24
2023-04-08T07:14:16.391Z,28.22
2023-04-08T07:15:16.389Z,28.23
2023-04-08T07:16:15.779Z,28.26
2023-04-08T07:17:15.682Z,28.25
2023-04-08T07:18:16.474Z,28.24
2023-04-08T07:19:15.861Z,28.26
2023-04-08T07:20:15.644Z,28.25
2023-04-08T07:21:15.596Z,28.27
2023-04-08T07:22:15.579Z,28.26
2023-04-08T07:23:15.573Z,28.26
2023-04-08T07:24:15.542Z,28.25
2023-04-08T07:25:15.878Z,28.26
2023-04-08T07:26:15.566Z,28.25
2023-04-08T07:27:15.504Z,28.27
2023-04-08T07:28:15.514Z,28.26
2023-04-08T07:29:15.536Z,28.26
2023-04-08T07:30:15.504Z,28.26
2023-04-08T07:31:15.527Z,28.27
2023-04-08T07:32:15.484Z,28.29
2023-04-08T07:33:15.561Z,28.30
2023-04-08T07:34:15.504Z,28.27
2023-04-08T07:35:15.458Z,28.29
2023-04-08T07:36:15.478Z,28.30
2023-04-08T07:37:15.470Z,28.29
2023-04-08T07:38:15.449Z,28.30
2023-04-08T07:39:15.427Z,28.29
2023-04-08T07:40:15.473Z,28.29
2023-04-08T07:41:15.481Z,28.30
2023-04-08T07:42:15.535Z,28.31
2023-04-08T07:43:15.532Z,28.31
2023-04-08T07:44:15.712Z,28.33
2023-04-08T07:45:15.646Z,28.35
2023-04-08T07:46:15.652Z,28.32
2023-04-08T07:47:15.700Z,28.34
2023-04-08T07:48:15.733Z,28.34
2023-04-08T07:49:15.846Z,28.33
2023-04-08T07:50:15.801Z,28.35
2023-04-08T07:51:15.842Z,28.34
2023-04-08T07:52:15.867Z,28.34
2023-04-08T07:53:15.895Z,28.35
2023-04-08T07:54:15.966Z,28.33
2023-04-08T07:55:15.940Z,28.33
2023-04-08T07:56:15.945Z,28.33
2023-04-08T07:57:15.987Z,28.35
2023-04-08T07:58:16.094Z,28.32
2023-04-08T07:59:16.136Z,28.34
2023-04-08T08:00:16.109Z,28.34
2023-04-08T08:01:16.089Z,28.36
2023-04-08T08:02:18.975Z,28.37
2023-04-08T08:03:16.195Z,28.36
2023-04-08T08:04:16.320Z,28.37
2023-04-08T08:05:16.286Z,28.35
2023-04-08T08:06:16.092Z,28.37
2023-04-08T08:07:16.153Z,28.36
2023-04-08T08:08:16.118Z,28.37
2023-04-08T08:09:16.118Z,28.37
2023-04-08T08:10:16.058Z,28.37
2023-04-08T08:11:16.056Z,28.37
2023-04-08T08:12:16.124Z,28.35
2023-04-08T08:13:16.077Z,28.36
2023-04-08T08:14:16.071Z,28.36
2023-04-08T08:15:16.032Z,28.37
2023-04-08T08:16:16.025Z,28.39
2023-04-08T08:17:16.048Z,28.39
2023-04-08T08:18:16.033Z,28.37
2023-04-08T08:19:15.996Z,28.40
2023-04-08T08:20:15.973Z,28.38
2023-04-08T08:21:16.006Z,28.38
2023-04-08T08:22:16.937Z,28.42
2023-04-08T08:23:15.980Z,28.39
2023-04-08T08:24:16.013Z,28.41
2023-04-08T08:25:16.522Z,28.40
2023-04-08T08:26:15.950Z,28.39
2023-04-08T08:27:16.017Z,28.40
2023-04-08T08:28:15.929Z,28.39
2023-04-08T08:29:15.935Z,28.41
2023-04-08T08:30:15.921Z,28.41
2023-04-08T08:31:15.963Z,28.41
2023-04-08T08:32:15.891Z,28.40
2023-04-08T08:33:16.037Z,28.41
2023-04-08T08:34:15.922Z,28.43
2023-04-08T08:35:15.896Z,28.44
2023-04-08T08:36:15.872Z,28.43
2023-04-08T08:37:15.893Z,28.41
2023-04-08T08:38:15.971Z,28.42
2023-04-08T08:39:15.926Z,28.41
2023-04-08T08:40:15.844Z,28.41
2023-04-08T08:41:15.878Z,28.41
2023-04-08T08:42:15.839Z,28.40
2023-04-08T08:43:15.837Z,28.40
2023-04-08T08:44:17.438Z,28.42
2023-04-08T08:45:15.877Z,28.44
2023-04-08T08:46:15.843Z,28.44
2023-04-08T08:47:15.810Z,28.44
2023-04-08T08:48:15.869Z,28.44
2023-04-08T08:49:15.816Z,28.44
2023-04-08T08:50:15.823Z,28.43
2023-04-08T08:51:15.785Z,28.44
2023-04-08T08:52:15.815Z,28.43
2023-04-08T08:53:15.793Z,28.44
2023-04-08T08:54:15.766Z,28.44
2023-04-08T08:55:32.573Z,28.44
2023-04-08T08:56:18.783Z,28.45
2023-04-08T08:57:16.480Z,28.45
2023-04-08T08:58:15.727Z,28.45
2023-04-08T08:59:15.732Z,28.43
2023-04-08T09:00:15.712Z,28.46
2023-04-08T09:01:15.737Z,28.45
2023-04-08T09:02:15.777Z,28.45
2023-04-08T09:03:15.960Z,28.46
2023-04-08T09:04:15.926Z,28.47
2023-04-08T09:05:15.853Z,28.45
2023-04-08T09:06:15.698Z,28.46
2023-04-08T09:07:15.668Z,28.48
2023-04-08T09:08:15.641Z,28.47
2023-04-08T09:09:15.744Z,28.47
2023-04-08T09:10:15.638Z,28.48
2023-04-08T09:11:15.681Z,28.47
2023-04-08T09:12:17.625Z,28.48
2023-04-08T09:13:15.678Z,28.49
2023-04-08T09:14:15.717Z,28.48
2023-04-08T09:15:15.798Z,28.47
2023-04-08T09:16:15.946Z,28.49
2023-04-08T09:17:15.825Z,28.49
2023-04-08T09:18:17.907Z,28.50
2023-04-08T09:19:15.969Z,28.49
2023-04-08T09:20:15.930Z,28.50
2023-04-08T09:21:16.508Z,28.49
2023-04-08T09:22:16.010Z,28.51
2023-04-08T09:23:16.050Z,28.51
2023-04-08T09:24:17.773Z,28.52
2023-04-08T09:25:16.124Z,28.51
2023-04-08T09:26:16.204Z,28.52
2023-04-08T09:27:16.233Z,28.52
2023-04-08T09:28:16.222Z,28.52
2023-04-08T09:29:26.038Z,28.49
2023-04-08T09:30:17.284Z,28.54
2023-04-08T09:31:16.944Z,28.55
2023-04-08T09:32:16.967Z,28.54
2023-04-08T09:33:16.329Z,28.54
2023-04-08T09:34:16.270Z,28.55
2023-04-08T09:35:16.261Z,28.54
2023-04-08T09:36:16.470Z,28.54
2023-04-08T09:37:16.236Z,28.52
2023-04-08T09:38:16.199Z,28.55
2023-04-08T09:39:16.253Z,28.53
2023-04-08T09:40:16.216Z,28.54
2023-04-08T09:41:16.163Z,28.53
2023-04-08T09:42:16.953Z,28.50
2023-04-08T09:43:16.241Z,28.52
2023-04-08T09:44:16.272Z,28.51
2023-04-08T09:45:16.283Z,28.53
2023-04-08T09:46:16.463Z,28.52
2023-04-08T09:47:16.384Z,28.53
2023-04-08T09:48:16.674Z,28.53
2023-04-08T09:49:16.414Z,28.55
2023-04-08T09:50:16.431Z,28.56
2023-04-08T09:51:16.453Z,28.55
2023-04-08T09:52:16.550Z,28.56
2023-04-08T09:53:16.541Z,28.56
2023-04-08T09:54:16.563Z,28.55
2023-04-08T09:55:16.677Z,28.56
2023-04-08T09:56:16.658Z,28.54
2023-04-08T09:57:19.468Z,28.53
2023-04-08T09:58:16.649Z,28.56
2023-04-08T09:59:16.653Z,28.55
2023-04-08T10:00:16.616Z,28.54
2023-04-08T10:01:17.491Z,28.55
2023-04-08T10:02:16.799Z,28.54
2023-04-08T10:03:17.240Z,28.56
2023-04-08T10:04:16.796Z,28.55
2023-04-08T10:05:16.558Z,28.57
2023-04-08T10:06:16.579Z,28.56
2023-04-08T10:07:16.597Z,28.58
2023-04-08T10:08:16.567Z,28.56
2023-04-08T10:09:16.563Z,28.57
2023-04-08T10:10:19.470Z,28.59
2023-04-08T10:11:16.584Z,28.56
2023-04-08T10:12:16.546Z,28.56
2023-04-08T10:13:19.471Z,28.57
2023-04-08T10:14:16.532Z,28.58
2023-04-08T10:15:16.529Z,28.59
2023-04-08T10:16:16.548Z,28.59
2023-04-08T10:17:16.534Z,28.57
2023-04-08T10:18:17.462Z,28.56
2023-04-08T10:19:19.480Z,28.57
2023-04-08T10:20:16.495Z,28.57
2023-04-08T10:21:16.547Z,28.56
2023-04-08T10:22:19.129Z,28.61
2023-04-08T10:23:16.490Z,28.60
2023-04-08T10:24:16.450Z,28.61
2023-04-08T10:25:16.470Z,28.59
2023-04-08T10:26:19.033Z,28.59
2023-04-08T10:27:18.566Z,28.58
2023-04-08T10:28:16.729Z,28.57
2023-04-08T10:29:16.700Z,28.56
2023-04-08T10:30:16.790Z,28.56
2023-04-08T10:31:17.523Z,28.57
2023-04-08T10:32:16.820Z,28.55
2023-04-08T10:33:16.998Z,28.55
2023-04-08T10:34:16.913Z,28.54
2023-04-08T10:35:17.543Z,28.52
2023-04-08T10:36:16.994Z,28.54
2023-04-08T10:37:17.010Z,28.54
2023-04-08T10:38:17.054Z,28.51
2023-04-08T10:39:17.048Z,28.49
2023-04-08T10:40:17.132Z,28.49
2023-04-08T10:41:17.112Z,28.51
2023-04-08T10:42:17.261Z,28.50
2023-04-08T10:43:17.364Z,28.50
2023-04-08T10:44:17.319Z,28.48
2023-04-08T10:45:17.274Z,28.47
2023-04-08T10:46:17.417Z,28.49
2023-04-08T10:47:17.352Z,28.47
2023-04-08T10:48:17.391Z,28.47
2023-04-08T10:49:17.402Z,28.47
2023-04-08T10:50:18.068Z,28.45
2023-04-08T10:51:17.428Z,28.44
2023-04-08T10:52:17.546Z,28.42
2023-04-08T10:53:17.532Z,28.41
2023-04-08T10:54:17.578Z,28.39
2023-04-08T10:55:17.553Z,28.38
2023-04-08T10:56:17.602Z,28.37
2023-04-08T10:57:17.718Z,28.35
2023-04-08T10:58:17.663Z,28.34
2023-04-08T10:59:17.738Z,28.36
2023-04-08T11:00:17.833Z,28.32
2023-04-08T11:01:17.964Z,28.30
2023-04-08T11:02:17.994Z,28.29
2023-04-08T11:03:17.956Z,28.28
2023-04-08T11:04:17.988Z,28.28
2023-04-08T11:05:17.933Z,28.29
2023-04-08T11:06:17.916Z,28.27
2023-04-08T11:07:17.984Z,28.26
2023-04-08T11:08:20.169Z,28.26
2023-04-08T11:09:17.944Z,28.25
2023-04-08T11:10:17.986Z,28.25
2023-04-08T11:11:17.980Z,28.17
2023-04-08T11:12:17.943Z,28.20
2023-04-08T11:13:18.025Z,28.20
2023-04-08T11:14:17.913Z,28.18
2023-04-08T11:15:17.953Z,28.17
2023-04-08T11:16:18.698Z,28.14
2023-04-08T11:17:17.999Z,28.12
2023-04-08T11:18:18.539Z,28.12
2023-04-08T11:19:17.899Z,28.13
2023-04-08T11:20:17.972Z,28.12
2023-04-08T11:21:17.869Z,28.08
2023-04-08T11:22:17.897Z,28.09
2023-04-08T11:23:17.880Z,28.07
2023-04-08T11:24:17.870Z,28.03
2023-04-08T11:25:17.841Z,28.05
2023-04-08T11:26:17.872Z,28.05
2023-04-08T11:27:17.870Z,28.03
2023-04-08T11:28:17.840Z,28.06
2023-04-08T11:29:17.806Z,28.03
2023-04-08T11:30:17.865Z,28.02
2023-04-08T11:31:17.881Z,28.00
2023-04-08T11:32:17.856Z,28.01
2023-04-08T11:33:17.844Z,28.00
2023-04-08T11:34:17.835Z,27.99
2023-04-08T11:35:17.777Z,27.95
2023-04-08T11:36:17.781Z,27.97
2023-04-08T11:37:18.048Z,27.98
2023-04-08T11:38:17.783Z,27.97
2023-04-08T11:39:18.505Z,27.96
2023-04-08T11:40:17.799Z,27.95
2023-04-08T11:41:17.729Z,27.94
2023-04-08T11:42:17.787Z,27.96
2023-04-08T11:43:17.728Z,27.96
2023-04-08T11:44:17.700Z,27.96
2023-04-08T11:45:17.752Z,27.94
2023-04-08T11:46:17.781Z,27.97
2023-04-08T11:47:17.695Z,27.96
2023-04-08T11:48:17.708Z,27.95
2023-04-08T11:49:17.664Z,27.94
2023-04-08T11:50:17.709Z,27.95
2023-04-08T11:51:17.702Z,27.94
2023-04-08T11:52:17.681Z,27.94
2023-04-08T11:53:17.650Z,27.92
2023-04-08T11:54:17.668Z,27.92
2023-04-08T11:55:17.614Z,27.89
2023-04-08T11:56:17.640Z,27.93
2023-04-08T11:57:18.005Z,27.92
2023-04-08T11:58:17.695Z,27.90
2023-04-08T11:59:17.673Z,27.92
2023-04-08T12:00:17.719Z,27.89
2023-04-08T12:01:17.773Z,27.88
2023-04-08T12:02:17.939Z,27.90
2023-04-08T12:03:17.978Z,27.91
2023-04-08T12:04:17.896Z,27.90
2023-04-08T12:05:17.851Z,27.89
2023-04-08T12:06:17.919Z,27.89
2023-04-08T12:07:17.928Z,27.89
2023-04-08T12:08:17.971Z,27.91
2023-04-08T12:09:18.514Z,27.89
2023-04-08T12:10:17.988Z,27.87
2023-04-08T12:11:20.077Z,27.90
2023-04-08T12:12:18.069Z,27.89
2023-04-08T12:13:18.174Z,27.90
2023-04-08T12:14:18.160Z,27.89
2023-04-08T12:15:18.138Z,27.86
2023-04-08T12:16:18.203Z,27.86
2023-04-08T12:17:18.212Z,27.89
2023-04-08T12:18:18.246Z,27.88
2023-04-08T12:19:18.269Z,27.89
2023-04-08T12:20:18.284Z,27.88
2023-04-08T12:21:18.329Z,27.89
2023-04-08T12:22:18.374Z,27.86
2023-04-08T12:23:18.384Z,27.88
2023-04-08T12:24:18.361Z,27.87
2023-04-08T12:25:18.382Z,27.89
2023-04-08T12:26:18.454Z,27.89
2023-04-08T12:27:18.442Z,27.90
2023-04-08T12:28:19.416Z,27.90
2023-04-08T12:29:18.561Z,27.88
2023-04-08T12:30:18.541Z,27.89
2023-04-08T12:31:18.622Z,27.88
2023-04-08T12:32:18.608Z,27.87
2023-04-08T12:33:18.639Z,27.89
2023-04-08T12:34:18.670Z,27.87
2023-04-08T12:35:18.674Z,27.86
2023-04-08T12:36:18.794Z,27.90
2023-04-08T12:37:19.533Z,27.89
2023-04-08T12:38:19.612Z,27.89
2023-04-08T12:39:18.799Z,27.88
2023-04-08T12:40:18.829Z,27.87
2023-04-08T12:41:18.792Z,27.87
2023-04-08T12:42:18.869Z,27.87
2023-04-08T12:43:18.922Z,27.86
2023-04-08T12:44:18.895Z,27.84
2023-04-08T12:45:18.912Z,27.87
2023-04-08T12:46:19.068Z,27.85
2023-04-08T12:47:19.054Z,27.85
2023-04-08T12:48:19.117Z,27.85
2023-04-08T12:49:19.089Z,27.87
2023-04-08T12:50:19.074Z,27.85
2023-04-08T12:51:19.125Z,27.87
2023-04-08T12:52:19.142Z,27.86